createdAt,value
2023-05-06T00:01:57.240Z,13.59
2023-05-06T00:04:23.770Z,13.57
2023-05-06T00:06:50.253Z,13.54
2023-05-06T00:09:16.783Z,13.51
2023-05-06T00:11:43.213Z,13.47
2023-05-06T00:14:09.587Z,13.40
2023-05-06T00:16:36.044Z,13.40
2023-05-06T00:19:02.627Z,13.35
2023-05-06T00:21:29.554Z,13.36
2023-05-06T00:23:55.998Z,13.32
2023-05-06T00:26:22.357Z,13.33
2023-05-06T00:28:48.991Z,13.21
2023-05-06T00:31:15.616Z,13.17
2023-05-06T00:33:42.079Z,13.10
2023-05-06T00:36:08.921Z,13.12
2023-05-06T00:38:35.671Z,13.10
2023-05-06T00:41:03.244Z,12.99
2023-05-06T00:43:29.652Z,13.08
2023-05-06T00:45:56.280Z,13.05
2023-05-06T00:48:23.150Z,13.06
2023-05-06T00:50:49.802Z,13.06
2023-05-06T00:53:23.595Z,13.11
2023-05-06T00:55:51.198Z,13.02
2023-05-06T00:58:19.714Z,13.02
2023-05-06T01:00:46.209Z,12.98
2023-05-06T01:03:12.874Z,12.99
2023-05-06T01:05:59.870Z,12.98
2023-05-06T01:08:42.180Z,13.00
2023-05-06T01:11:24.261Z,12.95
2023-05-06T01:13:59.117Z,12.97
2023-05-06T01:16:30.789Z,12.92
2023-05-06T01:19:00.238Z,12.90
2023-05-06T01:21:34.552Z,12.90
2023-05-06T01:24:01.659Z,12.85
2023-05-06T01:26:28.076Z,12.84
2023-05-06T01:28:55.000Z,12.85
2023-05-06T01:31:35.727Z,12.89
2023-05-06T01:34:27.861Z,12.87
2023-05-06T01:37:13.043Z,12.87
2023-05-06T01:39:41.289Z,12.82
2023-05-06T01:42:09.990Z,12.84
2023-05-06T01:44:38.866Z,12.82
2023-05-06T01:47:07.386Z,12.80
2023-05-06T01:49:34.552Z,12.85
2023-05-06T01:52:02.277Z,12.83
2023-05-06T01:54:28.712Z,12.75
2023-05-06T01:56:55.110Z,12.81
2023-05-06T01:59:21.797Z,12.78
2023-05-06T02:01:48.208Z,12.77
2023-05-06T02:04:14.841Z,12.75
2023-05-06T02:06:41.218Z,12.70
2023-05-06T02:09:07.555Z,12.72
2023-05-06T02:11:34.009Z,12.69
2023-05-06T02:14:01.942Z,12.65
2023-05-06T02:16:29.036Z,12.69
2023-05-06T02:18:55.635Z,12.69
2023-05-06T02:21:22.954Z,12.66
2023-05-06T02:23:49.992Z,12.66
2023-05-06T02:26:16.641Z,12.66
2023-05-06T02:28:43.142Z,12.60
2023-05-06T02:31:14.314Z,12.60
2023-05-06T02:33:40.795Z,12.55
2023-05-06T02:36:07.296Z,12.53
2023-05-06T02:38:33.776Z,12.56
2023-05-06T02:41:00.431Z,12.56
2023-05-06T02:43:26.892Z,12.55
2023-05-06T02:45:53.683Z,12.52
2023-05-06T02:48:20.115Z,12.55
2023-05-06T02:50:46.523Z,12.53
2023-05-06T02:53:13.298Z,12.47
2023-05-06T02:55:39.911Z,12.47
2023-05-06T02:58:06.308Z,12.43
2023-05-06T03:00:32.663Z,12.46
2023-05-06T03:02:59.092Z,12.46
2023-05-06T03:05:25.610Z,12.47
2023-05-06T03:07:52.417Z,12.44
2023-05-06T03:10:19.027Z,12.48
2023-05-06T03:12:45.686Z,12.43
2023-05-06T03:15:12.596Z,12.45
2023-05-06T03:17:39.300Z,12.45
2023-05-06T03:20:08.290Z,12.45
2023-05-06T03:22:34.782Z,12.44
2023-05-06T03:25:01.192Z,12.46
2023-05-06T03:27:27.582Z,12.45
2023-05-06T03:29:53.980Z,12.40
2023-05-06T03:32:20.957Z,12.40
2023-05-06T03:34:47.408Z,12.40
2023-05-06T03:37:13.853Z,12.40
2023-05-06T03:39:40.389Z,12.37
2023-05-06T03:42:09.254Z,12.37
2023-05-06T03:44:36.297Z,12.45
2023-05-06T03:47:02.895Z,12.39
2023-05-06T03:49:29.295Z,12.39
2023-05-06T03:51:56.079Z,12.37
2023-05-06T03:54:23.132Z,12.38
2023-05-06T03:56:49.528Z,12.39
2023-05-06T03:59:16.068Z,12.37
2023-05-06T04:01:42.657Z,12.34
2023-05-06T04:04:09.255Z,12.30
2023-05-06T04:06:35.694Z,12.28
2023-05-06T04:09:02.144Z,12.24
2023-05-06T04:11:29.812Z,12.29
2023-05-06T04:13:56.388Z,12.29
2023-05-06T04:16:23.290Z,12.32
2023-05-06T04:18:51.500Z,12.29
2023-05-06T04:21:18.440Z,12.30
2023-05-06T04:23:44.886Z,12.33
2023-05-06T04:26:11.321Z,12.31
2023-05-06T04:28:38.064Z,12.32
2023-05-06T04:31:04.905Z,12.32
2023-05-06T04:33:31.398Z,12.36
2023-05-06T04:35:57.995Z,12.35
2023-05-06T04:38:27.042Z,12.31
2023-05-06T04:40:53.582Z,12.31
2023-05-06T04:43:20.042Z,12.35
2023-05-06T04:45:49.541Z,12.34
2023-05-06T04:48:21.951Z,12.29
2023-05-06T04:50:49.634Z,12.36
2023-05-06T04:53:16.807Z,12.36
2023-05-06T04:55:43.308Z,12.38
2023-05-06T04:58:09.670Z,12.36
2023-05-06T05:00:36.183Z,12.35
2023-05-06T05:03:02.778Z,12.37
2023-05-06T05:05:29.280Z,12.34
2023-05-06T05:07:55.947Z,12.34
2023-05-06T05:10:22.437Z,12.30
2023-05-06T05:12:49.009Z,12.35
2023-05-06T05:15:15.568Z,12.37
2023-05-06T05:17:42.051Z,12.42
2023-05-06T05:20:08.956Z,12.43
2023-05-06T05:22:35.420Z,12.49
2023-05-06T05:25:02.321Z,12.48
2023-05-06T05:27:29.176Z,12.51
2023-05-06T05:29:56.297Z,12.59
2023-05-06T05:32:22.820Z,12.66
2023-05-06T05:34:49.319Z,12.72
2023-05-06T05:37:15.776Z,12.75
2023-05-06T05:39:42.186Z,12.81
2023-05-06T05:42:08.747Z,12.78
2023-05-06T05:44:35.384Z,12.81
2023-05-06T05:47:02.557Z,12.82
2023-05-06T05:49:29.689Z,12.76
2023-05-06T05:51:56.241Z,12.81
2023-05-06T05:54:22.811Z,12.85
2023-05-06T05:56:50.397Z,12.83
2023-05-06T05:59:16.996Z,12.87
2023-05-06T06:01:45.067Z,12.91
2023-05-06T06:04:11.741Z,12.93
2023-05-06T06:06:38.336Z,12.96
2023-05-06T06:09:04.867Z,13.02
2023-05-06T06:11:31.317Z,13.03
2023-05-06T06:13:57.680Z,13.08
2023-05-06T06:16:24.271Z,13.09
2023-05-06T06:18:50.914Z,13.19
2023-05-06T06:21:19.734Z,13.22
2023-05-06T06:23:47.230Z,13.25
2023-05-06T06:26:13.666Z,13.26
2023-05-06T06:28:40.294Z,13.23
2023-05-06T06:31:06.788Z,13.27
2023-05-06T06:33:33.291Z,13.29
2023-05-06T06:35:59.767Z,13.34
2023-05-06T06:38:26.255Z,13.29
2023-05-06T06:40:52.880Z,13.27
2023-05-06T06:43:23.733Z,13.29
2023-05-06T06:45:50.614Z,13.27
2023-05-06T06:48:17.172Z,13.30
2023-05-06T06:50:43.675Z,13.24
2023-05-06T06:53:10.816Z,13.30
2023-05-06T06:55:37.524Z,13.31
2023-05-06T06:58:04.091Z,13.33
2023-05-06T07:00:30.637Z,13.32
2023-05-06T07:02:57.137Z,13.37
2023-05-06T07:05:23.521Z,13.47
2023-05-06T07:07:49.881Z,13.52
2023-05-06T07:10:16.389Z,13.66
2023-05-06T07:12:42.875Z,13.81
2023-05-06T07:15:10.037Z,13.85
2023-05-06T07:17:36.663Z,13.91
2023-05-06T07:20:03.539Z,13.90
2023-05-06T07:22:30.114Z,13.95
2023-05-06T07:24:56.681Z,13.95
2023-05-06T07:27:24.069Z,14.01
2023-05-06T07:29:50.720Z,14.04
2023-05-06T07:32:17.421Z,14.07
2023-05-06T07:34:43.901Z,14.02
2023-05-06T07:37:10.279Z,14.04
2023-05-06T07:39:36.693Z,13.98
2023-05-06T07:42:03.207Z,14.09
2023-05-06T07:44:29.672Z,14.18
2023-05-06T07:46:56.381Z,14.25
2023-05-06T07:49:23.057Z,14.22
2023-05-06T07:51:49.451Z,14.40
2023-05-06T07:54:15.821Z,14.40
2023-05-06T07:56:43.872Z,14.48
2023-05-06T07:59:10.360Z,14.45
2023-05-06T08:01:36.905Z,14.58
2023-05-06T08:04:03.545Z,14.69
2023-05-06T08:06:30.033Z,14.74
2023-05-06T08:08:56.551Z,14.82
2023-05-06T08:11:22.962Z,14.83
2023-05-06T08:13:49.373Z,14.83
2023-05-06T08:16:16.044Z,14.94
2023-05-06T08:18:43.627Z,14.90
2023-05-06T08:21:10.061Z,14.96
2023-05-06T08:23:36.426Z,15.00
2023-05-06T08:26:03.027Z,15.09
2023-05-06T08:28:29.530Z,15.13
2023-05-06T08:30:56.330Z,15.18
2023-05-06T08:33:22.957Z,15.18
2023-05-06T08:35:49.542Z,15.28
2023-05-06T08:38:16.355Z,15.29
2023-05-06T08:40:44.868Z,15.39
2023-05-06T08:43:13.429Z,15.46
2023-05-06T08:45:41.287Z,15.47
2023-05-06T08:48:08.023Z,15.62
2023-05-06T08:50:41.972Z,15.88
2023-05-06T08:53:12.319Z,16.15
2023-05-06T08:55:40.895Z,16.26
2023-05-06T08:58:10.816Z,16.37
2023-05-06T09:00:37.795Z,16.44
2023-05-06T09:03:04.500Z,16.38
2023-05-06T09:05:31.149Z,16.50
2023-05-06T09:07:57.833Z,16.61
2023-05-06T09:10:24.356Z,16.69
2023-05-06T09:12:54.030Z,16.63
2023-05-06T09:15:25.015Z,16.45
2023-05-06T09:17:51.547Z,16.43
2023-05-06T09:20:17.992Z,16.73
2023-05-06T09:22:44.683Z,17.01
2023-05-06T09:25:12.077Z,17.03
2023-05-06T09:27:39.514Z,17.17
2023-05-06T09:30:07.232Z,17.33
2023-05-06T09:32:37.356Z,17.19
2023-05-06T09:35:06.226Z,17.09
2023-05-06T09:37:32.761Z,16.91
2023-05-06T09:40:00.919Z,16.82
2023-05-06T09:42:30.057Z,16.74
2023-05-06T09:45:01.688Z,16.58
2023-05-06T09:47:34.072Z,16.61
2023-05-06T09:50:01.902Z,16.55
2023-05-06T09:52:29.217Z,16.56
2023-05-06T09:54:56.665Z,16.58
2023-05-06T09:57:24.123Z,16.68
2023-05-06T09:59:52.277Z,16.94
2023-05-06T10:02:19.499Z,17.12
2023-05-06T10:04:48.600Z,17.30
2023-05-06T10:07:19.710Z,17.45
2023-05-06T10:09:46.780Z,17.60
2023-05-06T10:12:13.897Z,17.88
2023-05-06T10:14:40.422Z,18.12
2023-05-06T10:17:12.578Z,18.27
2023-05-06T10:19:42.355Z,18.54
2023-05-06T10:22:27.214Z,18.66
2023-05-06T10:25:05.723Z,18.65
2023-05-06T10:27:35.847Z,18.87
2023-05-06T10:30:02.442Z,18.94
2023-05-06T10:32:32.112Z,19.12
2023-05-06T10:35:25.151Z,19.14
2023-05-06T10:37:52.704Z,19.23
2023-05-06T10:40:19.702Z,19.28
2023-05-06T10:42:46.201Z,19.01
2023-05-06T10:45:15.237Z,19.24
2023-05-06T10:47:56.831Z,19.34
2023-05-06T10:50:24.685Z,19.56
2023-05-06T10:52:55.372Z,19.63
2023-05-06T10:55:33.359Z,19.58
2023-05-06T10:58:11.821Z,19.48
2023-05-06T11:00:38.441Z,19.54
2023-05-06T11:03:10.869Z,19.62
2023-05-06T11:05:51.533Z,19.72
2023-05-06T11:08:27.215Z,19.78
2023-05-06T11:10:54.184Z,19.71
2023-05-06T11:13:28.291Z,19.59
2023-05-06T11:15:56.301Z,19.42
2023-05-06T11:18:29.546Z,19.60
2023-05-06T11:21:05.002Z,19.73
2023-05-06T11:23:47.003Z,19.50
2023-05-06T11:26:14.008Z,19.77
2023-05-06T11:28:43.909Z,19.89
2023-05-06T11:31:12.447Z,19.96
2023-05-06T11:33:48.449Z,19.95
2023-05-06T11:36:19.373Z,19.86
2023-05-06T11:38:50.073Z,20.05
2023-05-06T11:41:17.171Z,20.07
2023-05-06T11:43:49.919Z,20.11
2023-05-06T11:46:18.786Z,20.22
2023-05-06T11:48:45.373Z,20.13
2023-05-06T11:51:11.930Z,20.30
2023-05-06T11:53:38.563Z,20.25
2023-05-06T11:56:08.683Z,20.06
2023-05-06T11:58:35.351Z,19.93
2023-05-06T12:01:04.389Z,19.82
2023-05-06T12:03:33.069Z,19.84
2023-05-06T12:06:00.337Z,20.06
2023-05-06T12:08:31.517Z,20.24
2023-05-06T12:11:02.063Z,20.39
2023-05-06T12:13:29.429Z,20.29
2023-05-06T12:15:58.292Z,20.52
2023-05-06T12:18:25.574Z,20.66
2023-05-06T12:21:02.676Z,20.83
2023-05-06T12:23:29.230Z,20.78
2023-05-06T12:26:03.747Z,20.93
2023-05-06T12:28:31.608Z,21.02
2023-05-06T12:30:58.255Z,21.12
2023-05-06T12:33:24.996Z,20.96
2023-05-06T12:35:52.560Z,21.02
2023-05-06T12:38:18.980Z,21.05
2023-05-06T12:40:53.823Z,21.09
2023-05-06T12:43:29.365Z,21.07
2023-05-06T12:46:09.421Z,20.72
2023-05-06T12:48:36.086Z,20.69
2023-05-06T12:51:17.969Z,20.73
2023-05-06T12:53:44.538Z,20.76
2023-05-06T12:56:11.288Z,20.69
2023-05-06T12:58:39.455Z,20.50
2023-05-06T13:01:07.851Z,20.42
2023-05-06T13:03:38.359Z,20.38
2023-05-06T13:06:05.480Z,20.33
2023-05-06T13:08:32.056Z,20.52
2023-05-06T13:10:59.715Z,20.38
2023-05-06T13:13:26.432Z,20.44
2023-05-06T13:15:53.711Z,20.73
2023-05-06T13:18:20.332Z,20.90
2023-05-06T13:20:46.897Z,20.93
2023-05-06T13:23:13.399Z,21.04
2023-05-06T13:25:51.085Z,21.09
2023-05-06T13:28:18.397Z,21.23
2023-05-06T13:30:44.898Z,21.29
2023-05-06T13:33:11.268Z,21.37
2023-05-06T13:35:37.746Z,21.32
2023-05-06T13:38:04.272Z,21.32
2023-05-06T13:40:30.820Z,21.45
2023-05-06T13:42:57.743Z,21.47
2023-05-06T13:45:24.213Z,21.58
2023-05-06T13:47:50.785Z,21.69
2023-05-06T13:50:17.473Z,21.41
2023-05-06T13:52:43.908Z,21.62
2023-05-06T13:55:10.592Z,21.82
2023-05-06T13:57:37.358Z,21.92
2023-05-06T14:00:07.191Z,21.96
2023-05-06T14:02:33.704Z,21.99
2023-05-06T14:05:00.977Z,22.00
2023-05-06T14:07:27.474Z,22.17
2023-05-06T14:09:54.005Z,21.97
2023-05-06T14:12:22.800Z,21.73
2023-05-06T14:14:49.219Z,21.75
2023-05-06T14:17:15.641Z,21.57
2023-05-06T14:19:42.083Z,21.42
2023-05-06T14:22:08.483Z,21.38
2023-05-06T14:24:34.942Z,21.26
2023-05-06T14:27:01.453Z,21.24
2023-05-06T14:29:27.988Z,21.33
2023-05-06T14:31:54.470Z,21.40
2023-05-06T14:34:20.971Z,21.58
2023-05-06T14:36:48.051Z,21.67
2023-05-06T14:39:14.449Z,21.69
2023-05-06T14:41:41.001Z,21.75
2023-05-06T14:44:07.390Z,21.73
2023-05-06T14:46:33.974Z,21.80
2023-05-06T14:49:00.482Z,21.89
2023-05-06T14:51:27.125Z,21.93
2023-05-06T14:53:53.723Z,21.96
2023-05-06T14:56:21.063Z,21.79
2023-05-06T14:58:47.686Z,21.48
2023-05-06T15:01:14.080Z,21.36
2023-05-06T15:03:40.635Z,21.12
2023-05-06T15:06:07.233Z,20.87
2023-05-06T15:08:33.651Z,21.02
2023-05-06T15:11:03.079Z,20.98
2023-05-06T15:13:30.648Z,21.17
2023-05-06T15:15:57.200Z,21.15
2023-05-06T15:18:23.663Z,21.05
2023-05-06T15:20:50.793Z,20.93
2023-05-06T15:23:17.217Z,20.82
2023-05-06T15:25:43.768Z,20.74
2023-05-06T15:28:10.349Z,20.62
2023-05-06T15:30:37.813Z,20.56
2023-05-06T15:33:05.603Z,20.52
2023-05-06T15:35:32.237Z,20.36
2023-05-06T15:37:59.122Z,20.41
2023-05-06T15:40:26.836Z,20.51
2023-05-06T15:42:53.361Z,20.46
2023-05-06T15:45:20.995Z,20.56
2023-05-06T15:47:48.406Z,20.49
2023-05-06T15:50:28.938Z,20.46
2023-05-06T15:52:58.894Z,20.45
2023-05-06T15:55:26.485Z,20.51
2023-05-06T15:57:54.747Z,20.59
2023-05-06T16:00:21.977Z,20.62
2023-05-06T16:02:48.676Z,20.62
2023-05-06T16:05:15.730Z,20.54
2023-05-06T16:07:42.430Z,20.51
2023-05-06T16:10:09.985Z,20.56
2023-05-06T16:12:36.578Z,20.60
2023-05-06T16:15:03.190Z,20.59
2023-05-06T16:17:30.225Z,20.63
2023-05-06T16:19:56.623Z,20.61
2023-05-06T16:22:23.017Z,20.57
2023-05-06T16:24:49.524Z,20.50
2023-05-06T16:27:16.132Z,20.42
2023-05-06T16:29:42.622Z,20.38
2023-05-06T16:32:09.065Z,20.24
2023-05-06T16:34:38.251Z,20.15
2023-05-06T16:37:07.505Z,20.15
2023-05-06T16:39:34.081Z,19.96
2023-05-06T16:42:00.860Z,19.92
2023-05-06T16:44:28.838Z,19.84
2023-05-06T16:46:55.970Z,19.80
2023-05-06T16:49:22.552Z,19.75
2023-05-06T16:51:49.176Z,19.70
2023-05-06T16:54:15.719Z,19.62
2023-05-06T16:56:51.366Z,19.50
2023-05-06T16:59:21.435Z,19.47
2023-05-06T17:01:48.652Z,19.34
2023-05-06T17:04:15.963Z,19.37
2023-05-06T17:06:42.404Z,19.34
2023-05-06T17:09:08.880Z,19.20
2023-05-06T17:11:35.319Z,19.11
2023-05-06T17:14:01.715Z,19.11
2023-05-06T17:16:28.168Z,19.00
2023-05-06T17:18:54.746Z,18.99
2023-05-06T17:21:21.358Z,18.94
2023-05-06T17:23:47.980Z,18.90
2023-05-06T17:26:17.630Z,18.86
2023-05-06T17:28:44.081Z,18.79
2023-05-06T17:31:10.536Z,18.75
2023-05-06T17:33:37.073Z,18.67
2023-05-06T17:36:03.695Z,18.61
2023-05-06T17:38:30.254Z,18.56
2023-05-06T17:40:56.786Z,18.51
2023-05-06T17:43:23.366Z,18.49
2023-05-06T17:45:49.880Z,18.45
2023-05-06T17:48:16.584Z,18.42
2023-05-06T17:50:43.012Z,18.35
2023-05-06T17:53:10.719Z,18.32
2023-05-06T17:55:37.268Z,18.23
2023-05-06T17:58:03.770Z,18.17
2023-05-06T18:00:30.253Z,18.10
2023-05-06T18:02:56.877Z,18.06
2023-05-06T18:05:25.503Z,17.96
2023-05-06T18:07:52.349Z,17.85
2023-05-06T18:10:19.249Z,17.73
2023-05-06T18:12:46.146Z,17.67
2023-05-06T18:15:12.905Z,17.54
2023-05-06T18:17:39.900Z,17.45
2023-05-06T18:20:07.965Z,17.36
2023-05-06T18:22:35.001Z,17.23
2023-05-06T18:25:02.105Z,17.10
2023-05-06T18:27:29.583Z,16.96
2023-05-06T18:29:56.090Z,16.83
2023-05-06T18:32:22.593Z,16.70
2023-05-06T18:34:49.091Z,16.61
2023-05-06T18:37:15.757Z,16.49
2023-05-06T18:39:42.816Z,16.39
2023-05-06T18:42:09.566Z,16.35
2023-05-06T18:44:36.530Z,16.37
2023-05-06T18:47:03.260Z,16.27
2023-05-06T18:49:33.759Z,16.16
2023-05-06T18:52:03.494Z,16.03
2023-05-06T18:54:30.966Z,15.98
2023-05-06T18:56:58.633Z,15.91
2023-05-06T18:59:26.117Z,15.82
2023-05-06T19:01:52.846Z,15.76
2023-05-06T19:04:19.638Z,15.70
2023-05-06T19:06:46.144Z,15.66
2023-05-06T19:09:12.689Z,15.63
2023-05-06T19:11:39.725Z,15.48
2023-05-06T19:14:06.213Z,15.45
2023-05-06T19:16:35.834Z,15.39
2023-05-06T19:19:09.550Z,15.44
2023-05-06T19:21:38.324Z,15.46
2023-05-06T19:24:06.392Z,15.55
2023-05-06T19:26:34.020Z,15.49
2023-05-06T19:29:00.654Z,15.38
2023-05-06T19:31:27.139Z,15.23
2023-05-06T19:33:54.484Z,15.14
2023-05-06T19:36:21.549Z,15.08
2023-05-06T19:38:48.163Z,14.99
2023-05-06T19:41:14.904Z,14.98
2023-05-06T19:43:45.274Z,14.91
2023-05-06T19:46:12.224Z,14.96
2023-05-06T19:48:45.082Z,14.82
2023-05-06T19:51:12.571Z,14.73
2023-05-06T19:53:39.243Z,14.68
2023-05-06T19:56:12.633Z,14.71
2023-05-06T19:58:44.165Z,14.68
2023-05-06T20:01:11.537Z,14.52
2023-05-06T20:03:38.592Z,14.53
2023-05-06T20:06:05.856Z,14.58
2023-05-06T20:08:32.446Z,14.48
2023-05-06T20:10:59.503Z,14.39
2023-05-06T20:13:26.083Z,14.30
2023-05-06T20:15:55.038Z,14.30
2023-05-06T20:18:21.743Z,14.30
2023-05-06T20:20:48.168Z,14.28
2023-05-06T20:23:15.468Z,14.27
2023-05-06T20:25:41.920Z,14.23
2023-05-06T20:28:09.459Z,14.21
2023-05-06T20:30:36.101Z,14.21
2023-05-06T20:33:02.802Z,14.23
2023-05-06T20:35:29.335Z,14.16
2023-05-06T20:37:56.893Z,14.12
2023-05-06T20:40:24.886Z,14.11
2023-05-06T20:42:52.249Z,14.08
2023-05-06T20:45:19.375Z,13.95
2023-05-06T20:47:46.244Z,13.94
2023-05-06T20:50:16.919Z,13.90
2023-05-06T20:52:49.899Z,13.90
2023-05-06T20:55:17.482Z,13.83
2023-05-06T20:57:44.630Z,13.86
2023-05-06T21:00:12.773Z,13.79
2023-05-06T21:02:42.554Z,13.74
2023-05-06T21:05:11.222Z,13.75
2023-05-06T21:07:38.411Z,13.69
2023-05-06T21:10:06.031Z,13.71
2023-05-06T21:12:33.491Z,13.74
2023-05-06T21:15:00.308Z,13.76
2023-05-06T21:17:27.089Z,13.79
2023-05-06T21:19:53.853Z,13.82
2023-05-06T21:22:23.858Z,13.80
2023-05-06T21:24:51.022Z,13.82
2023-05-06T21:27:17.666Z,13.79
2023-05-06T21:29:44.304Z,13.79
2023-05-06T21:32:10.894Z,13.79
2023-05-06T21:34:37.564Z,13.73
2023-05-06T21:37:04.150Z,13.73
2023-05-06T21:39:30.617Z,13.61
2023-05-06T21:41:57.113Z,13.54
2023-05-06T21:44:23.500Z,13.33
2023-05-06T21:46:49.983Z,13.28
2023-05-06T21:49:16.591Z,13.22
2023-05-06T21:51:43.026Z,13.17
2023-05-06T21:54:09.565Z,13.09
2023-05-06T21:56:35.999Z,13.05
2023-05-06T21:59:02.463Z,13.11
2023-05-06T22:01:29.343Z,13.12
2023-05-06T22:03:56.231Z,13.10
2023-05-06T22:06:22.840Z,13.13
2023-05-06T22:08:49.551Z,13.11
2023-05-06T22:11:16.497Z,13.12
2023-05-06T22:13:43.037Z,13.04
2023-05-06T22:16:09.951Z,13.05
2023-05-06T22:18:41.135Z,13.02
2023-05-06T22:21:08.433Z,12.98
2023-05-06T22:23:35.104Z,12.93
2023-05-06T22:26:01.826Z,12.87
2023-05-06T22:28:28.357Z,12.85
2023-05-06T22:30:55.155Z,12.80
2023-05-06T22:33:21.742Z,12.73
2023-05-06T22:35:48.165Z,12.70
2023-05-06T22:38:14.627Z,12.68
2023-05-06T22:40:41.129Z,12.59
2023-05-06T22:43:07.594Z,12.57
2023-05-06T22:45:34.184Z,12.52
2023-05-06T22:48:00.986Z,12.50
2023-05-06T22:50:28.032Z,12.24
2023-05-06T22:52:54.462Z,12.38
2023-05-06T22:55:21.002Z,12.33
2023-05-06T22:57:49.916Z,12.27
2023-05-06T23:00:17.424Z,12.22
2023-05-06T23:02:44.030Z,12.20
2023-05-06T23:05:10.765Z,12.09
2023-05-06T23:07:37.307Z,12.11
2023-05-06T23:10:04.246Z,12.06
2023-05-06T23:12:34.554Z,12.04
2023-05-06T23:15:01.421Z,11.99
2023-05-06T23:17:28.061Z,11.97
2023-05-06T23:19:54.609Z,11.95
2023-05-06T23:22:21.066Z,11.94
2023-05-06T23:24:47.490Z,11.94
2023-05-06T23:27:13.919Z,11.94
2023-05-06T23:29:40.459Z,11.97
2023-05-06T23:32:07.132Z,11.89
2023-05-06T23:34:33.513Z,11.90
2023-05-06T23:37:00.121Z,11.89
2023-05-06T23:39:26.638Z,11.87
2023-05-06T23:41:53.068Z,11.88
2023-05-06T23:44:19.416Z,11.88
2023-05-06T23:46:45.917Z,11.88
2023-05-06T23:49:12.395Z,11.92
2023-05-06T23:51:38.856Z,11.86
2023-05-06T23:54:05.576Z,11.87
2023-05-06T23:56:32.112Z,11.84
2023-05-06T23:58:58.473Z,11.82
